METAR Data
IDs: Format: Raw Decoded Include TAF

Data at: 0526 UTC 26 May 2022

METAR for:K6B9 (Skaneateles Arpt, NY, US)
Text:K6B9 260515Z AUTO 17007G16KT 110V210 10SM CLR 18/10 A3017 RMK AO2
Temperature: 18.0°C ( 64°F)
Dewpoint: 10.0°C ( 50°F) [RH = 59%]
Pressure (altimeter):30.17 inches Hg (1021.8 mb)
Winds:from the S (170 degrees) at 8 MPH (7 knots; 3.6 m/s) gusting to 18 MPH (16 knots; 8.2 m/s)
Visibility:10 or more sm (16+ km)
Ceiling:at least 12,000 feet AGL
Clouds:sky clear below 12,000 feet AGL
QC Flag:automated observation with no human augmentation
Text:K6B9 260455Z AUTO 18007G19KT 100V250 10SM CLR 18/10 A3017 RMK AO2
Temperature: 18.0°C ( 64°F)
Dewpoint: 10.0°C ( 50°F) [RH = 59%]
Pressure (altimeter):30.17 inches Hg (1021.8 mb)
Winds:from the S (180 degrees) at 8 MPH (7 knots; 3.6 m/s) gusting to 22 MPH (19 knots; 9.8 m/s)
Visibility:10 or more sm (16+ km)
Ceiling:at least 12,000 feet AGL
Clouds:sky clear below 12,000 feet AGL
QC Flag:automated observation with no human augmentation
Text:K6B9 260435Z AUTO VRB05G18KT 10SM FEW120 19/10 A3018 RMK AO2
Temperature: 19.0°C ( 66°F)
Dewpoint: 10.0°C ( 50°F) [RH = 56%]
Pressure (altimeter):30.18 inches Hg (1022.1 mb)
Winds:variable direction winds at 6 MPH (5 knots; 2.6 m/s) gusting to 21 MPH (18 knots; 9.3 m/s)
Visibility:10 or more sm (16+ km)
Ceiling:at least 12,000 feet AGL
Clouds: few clouds at 12000 feet AGL
QC Flag:automated observation with no human augmentation
Text:K6B9 260415Z AUTO VRB05G13KT 10SM FEW120 19/10 A3018 RMK AO2
Temperature: 19.0°C ( 66°F)
Dewpoint: 10.0°C ( 50°F) [RH = 56%]
Pressure (altimeter):30.18 inches Hg (1022.1 mb)
Winds:variable direction winds at 6 MPH (5 knots; 2.6 m/s) gusting to 15 MPH (13 knots; 6.7 m/s)
Visibility:10 or more sm (16+ km)
Ceiling:at least 12,000 feet AGL
Clouds: few clouds at 12000 feet AGL
QC Flag:automated observation with no human augmentation
Text:K6B9 260355Z AUTO 17007G15KT 130V210 10SM CLR 19/10 A3019 RMK AO2
Temperature: 19.0°C ( 66°F)
Dewpoint: 10.0°C ( 50°F) [RH = 56%]
Pressure (altimeter):30.19 inches Hg (1022.4 mb)
Winds:from the S (170 degrees) at 8 MPH (7 knots; 3.6 m/s) gusting to 17 MPH (15 knots; 7.7 m/s)
Visibility:10 or more sm (16+ km)
Ceiling:at least 12,000 feet AGL
Clouds:sky clear below 12,000 feet AGL
QC Flag:automated observation with no human augmentation
Text:K6B9 260335Z AUTO VRB04G11KT 10SM CLR 19/09 A3020 RMK AO2
Temperature: 19.0°C ( 66°F)
Dewpoint: 9.0°C ( 48°F) [RH = 52%]
Pressure (altimeter):30.20 inches Hg (1022.8 mb)
Winds:variable direction winds at 5 MPH (4 knots; 2.1 m/s) gusting to 13 MPH (11 knots; 5.7 m/s)
Visibility:10 or more sm (16+ km)
Ceiling:at least 12,000 feet AGL
Clouds:sky clear below 12,000 feet AGL
QC Flag:automated observation with no human augmentation
Text:K6B9 260315Z AUTO VRB06G16KT 10SM CLR 19/09 A3020 RMK AO2
Temperature: 19.0°C ( 66°F)
Dewpoint: 9.0°C ( 48°F) [RH = 52%]
Pressure (altimeter):30.20 inches Hg (1022.8 mb)
Winds:variable direction winds at 7 MPH (6 knots; 3.1 m/s) gusting to 18 MPH (16 knots; 8.2 m/s)
Visibility:10 or more sm (16+ km)
Ceiling:at least 12,000 feet AGL
Clouds:sky clear below 12,000 feet AGL
QC Flag:automated observation with no human augmentation
Text:K6B9 260255Z AUTO VRB05KT 10SM CLR 20/09 A3021 RMK AO2
Temperature: 20.0°C ( 68°F)
Dewpoint: 9.0°C ( 48°F) [RH = 49%]
Pressure (altimeter):30.21 inches Hg (1023.1 mb)
Winds:variable direction winds at 6 MPH (5 knots; 2.6 m/s)
Visibility:10 or more sm (16+ km)
Ceiling:at least 12,000 feet AGL
Clouds:sky clear below 12,000 feet AGL
QC Flag:automated observation with no human augmentation
Text:K6B9 260235Z AUTO VRB06G14KT 10SM CLR 20/09 A3021 RMK AO2
Temperature: 20.0°C ( 68°F)
Dewpoint: 9.0°C ( 48°F) [RH = 49%]
Pressure (altimeter):30.21 inches Hg (1023.1 mb)
Winds:variable direction winds at 7 MPH (6 knots; 3.1 m/s) gusting to 16 MPH (14 knots; 7.2 m/s)
Visibility:10 or more sm (16+ km)
Ceiling:at least 12,000 feet AGL
Clouds:sky clear below 12,000 feet AGL
QC Flag:automated observation with no human augmentation
Text:K6B9 260215Z AUTO VRB03G10KT 10SM CLR 20/09 A3021 RMK AO2
Temperature: 20.0°C ( 68°F)
Dewpoint: 9.0°C ( 48°F) [RH = 49%]
Pressure (altimeter):30.21 inches Hg (1023.1 mb)
Winds:variable direction winds at 3 MPH (3 knots; 1.5 m/s) gusting to 12 MPH (10 knots; 5.1 m/s)
Visibility:10 or more sm (16+ km)
Ceiling:at least 12,000 feet AGL
Clouds:sky clear below 12,000 feet AGL
QC Flag:automated observation with no human augmentation
Text:K6B9 260155Z AUTO VRB04KT 10SM CLR 20/09 A3020 RMK AO2
Temperature: 20.0°C ( 68°F)
Dewpoint: 9.0°C ( 48°F) [RH = 49%]
Pressure (altimeter):30.20 inches Hg (1022.8 mb)
Winds:variable direction winds at 5 MPH (4 knots; 2.1 m/s)
Visibility:10 or more sm (16+ km)
Ceiling:at least 12,000 feet AGL
Clouds:sky clear below 12,000 feet AGL
QC Flag:automated observation with no human augmentation
Text:K6B9 260135Z AUTO VRB05G11KT 10SM CLR 20/10 A3020 RMK AO2
Temperature: 20.0°C ( 68°F)
Dewpoint: 10.0°C ( 50°F) [RH = 53%]
Pressure (altimeter):30.20 inches Hg (1022.8 mb)
Winds:variable direction winds at 6 MPH (5 knots; 2.6 m/s) gusting to 13 MPH (11 knots; 5.7 m/s)
Visibility:10 or more sm (16+ km)
Ceiling:at least 12,000 feet AGL
Clouds:sky clear below 12,000 feet AGL
QC Flag:automated observation with no human augmentation
Text:K6B9 260115Z AUTO VRB06G12KT 10SM CLR 21/10 A3020 RMK AO2
Temperature: 21.0°C ( 70°F)
Dewpoint: 10.0°C ( 50°F) [RH = 49%]
Pressure (altimeter):30.20 inches Hg (1022.8 mb)
Winds:variable direction winds at 7 MPH (6 knots; 3.1 m/s) gusting to 14 MPH (12 knots; 6.2 m/s)
Visibility:10 or more sm (16+ km)
Ceiling:at least 12,000 feet AGL
Clouds:sky clear below 12,000 feet AGL
QC Flag:automated observation with no human augmentation
Text:K6B9 260055Z AUTO VRB05KT 10SM CLR 21/10 A3020 RMK AO2
Temperature: 21.0°C ( 70°F)
Dewpoint: 10.0°C ( 50°F) [RH = 49%]
Pressure (altimeter):30.20 inches Hg (1022.8 mb)
Winds:variable direction winds at 6 MPH (5 knots; 2.6 m/s)
Visibility:10 or more sm (16+ km)
Ceiling:at least 12,000 feet AGL
Clouds:sky clear below 12,000 feet AGL
QC Flag:automated observation with no human augmentation
Text:K6B9 260035Z AUTO 00000KT 10SM CLR 20/11 A3021 RMK AO2
Temperature: 20.0°C ( 68°F)
Dewpoint: 11.0°C ( 52°F) [RH = 56%]
Pressure (altimeter):30.21 inches Hg (1023.1 mb)
Winds:calm
Visibility:10 or more sm (16+ km)
Ceiling:at least 12,000 feet AGL
Clouds:sky clear below 12,000 feet AGL
QC Flag:automated observation with no human augmentation
Text:K6B9 260015Z AUTO 00000KT 10SM CLR 21/12 A3021 RMK AO2
Temperature: 21.0°C ( 70°F)
Dewpoint: 12.0°C ( 54°F) [RH = 56%]
Pressure (altimeter):30.21 inches Hg (1023.1 mb)
Winds:calm
Visibility:10 or more sm (16+ km)
Ceiling:at least 12,000 feet AGL
Clouds:sky clear below 12,000 feet AGL
QC Flag:automated observation with no human augmentation
Text:K6B9 252355Z AUTO 11004KT 10SM CLR 21/12 A3020 RMK AO2
Temperature: 21.0°C ( 70°F)
Dewpoint: 12.0°C ( 54°F) [RH = 56%]
Pressure (altimeter):30.20 inches Hg (1022.8 mb)
Winds:from the ESE (110 degrees) at 5 MPH (4 knots; 2.1 m/s)
Visibility:10 or more sm (16+ km)
Ceiling:at least 12,000 feet AGL
Clouds:sky clear below 12,000 feet AGL
QC Flag:automated observation with no human augmentation
Text:K6B9 252335Z AUTO VRB03KT 10SM CLR 22/11 A3020 RMK AO2
Temperature: 22.0°C ( 72°F)
Dewpoint: 11.0°C ( 52°F) [RH = 50%]
Pressure (altimeter):30.20 inches Hg (1022.8 mb)
Winds:variable direction winds at 3 MPH (3 knots; 1.5 m/s)
Visibility:10 or more sm (16+ km)
Ceiling:at least 12,000 feet AGL
Clouds:sky clear below 12,000 feet AGL
QC Flag:automated observation with no human augmentation
Text:K6B9 252315Z AUTO 16004KT 10SM CLR 22/11 A3021 RMK AO2
Temperature: 22.0°C ( 72°F)
Dewpoint: 11.0°C ( 52°F) [RH = 50%]
Pressure (altimeter):30.21 inches Hg (1023.1 mb)
Winds:from the SSE (160 degrees) at 5 MPH (4 knots; 2.1 m/s)
Visibility:10 or more sm (16+ km)
Ceiling:at least 12,000 feet AGL
Clouds:sky clear below 12,000 feet AGL
QC Flag:automated observation with no human augmentation
Text:K6B9 252255Z AUTO VRB04KT 10SM CLR 22/11 A3021 RMK AO2
Temperature: 22.0°C ( 72°F)
Dewpoint: 11.0°C ( 52°F) [RH = 50%]
Pressure (altimeter):30.21 inches Hg (1023.1 mb)
Winds:variable direction winds at 5 MPH (4 knots; 2.1 m/s)
Visibility:10 or more sm (16+ km)
Ceiling:at least 12,000 feet AGL
Clouds:sky clear below 12,000 feet AGL
QC Flag:automated observation with no human augmentation
Text:K6B9 252235Z AUTO 00000KT 10SM CLR 23/11 A3022 RMK AO2
Temperature: 23.0°C ( 73°F)
Dewpoint: 11.0°C ( 52°F) [RH = 47%]
Pressure (altimeter):30.22 inches Hg (1023.5 mb)
Winds:calm
Visibility:10 or more sm (16+ km)
Ceiling:at least 12,000 feet AGL
Clouds:sky clear below 12,000 feet AGL
QC Flag:automated observation with no human augmentation
Text:K6B9 252215Z AUTO VRB05KT 10SM CLR 23/11 A3021 RMK AO2
Temperature: 23.0°C ( 73°F)
Dewpoint: 11.0°C ( 52°F) [RH = 47%]
Pressure (altimeter):30.21 inches Hg (1023.1 mb)
Winds:variable direction winds at 6 MPH (5 knots; 2.6 m/s)
Visibility:10 or more sm (16+ km)
Ceiling:at least 12,000 feet AGL
Clouds:sky clear below 12,000 feet AGL
QC Flag:automated observation with no human augmentation
Text:K6B9 252155Z AUTO VRB05G10KT 10SM SCT055 23/11 A3022 RMK AO2
Temperature: 23.0°C ( 73°F)
Dewpoint: 11.0°C ( 52°F) [RH = 47%]
Pressure (altimeter):30.22 inches Hg (1023.5 mb)
Winds:variable direction winds at 6 MPH (5 knots; 2.6 m/s) gusting to 12 MPH (10 knots; 5.1 m/s)
Visibility:10 or more sm (16+ km)
Ceiling:at least 12,000 feet AGL
Clouds: scattered clouds at 5500 feet AGL
QC Flag:automated observation with no human augmentation
Text:K6B9 252135Z AUTO VRB05G10KT 10SM BKN055 22/12 A3022 RMK AO2
Temperature: 22.0°C ( 72°F)
Dewpoint: 12.0°C ( 54°F) [RH = 53%]
Pressure (altimeter):30.22 inches Hg (1023.5 mb)
Winds:variable direction winds at 6 MPH (5 knots; 2.6 m/s) gusting to 12 MPH (10 knots; 5.1 m/s)
Visibility:10 or more sm (16+ km)
Ceiling:5500 feet AGL
Clouds: broken clouds at 5500 feet AGL
QC Flag:automated observation with no human augmentation
Text:K6B9 252115Z AUTO 12005KT 10SM SCT055 22/11 A3022 RMK AO2
Temperature: 22.0°C ( 72°F)
Dewpoint: 11.0°C ( 52°F) [RH = 50%]
Pressure (altimeter):30.22 inches Hg (1023.5 mb)
Winds:from the ESE (120 degrees) at 6 MPH (5 knots; 2.6 m/s)
Visibility:10 or more sm (16+ km)
Ceiling:at least 12,000 feet AGL
Clouds: scattered clouds at 5500 feet AGL
QC Flag:automated observation with no human augmentation
Text:K6B9 252055Z AUTO 12007KT 090V150 10SM FEW050 23/12 A3023 RMK AO2
Temperature: 23.0°C ( 73°F)
Dewpoint: 12.0°C ( 54°F) [RH = 50%]
Pressure (altimeter):30.23 inches Hg (1023.8 mb)
Winds:from the ESE (120 degrees) at 8 MPH (7 knots; 3.6 m/s)
Visibility:10 or more sm (16+ km)
Ceiling:at least 12,000 feet AGL
Clouds: few clouds at 5000 feet AGL
QC Flag:automated observation with no human augmentation
Text:K6B9 252035Z AUTO 11008KT 10SM FEW050 23/11 A3023 RMK AO2
Temperature: 23.0°C ( 73°F)
Dewpoint: 11.0°C ( 52°F) [RH = 47%]
Pressure (altimeter):30.23 inches Hg (1023.8 mb)
Winds:from the ESE (110 degrees) at 9 MPH (8 knots; 4.1 m/s)
Visibility:10 or more sm (16+ km)
Ceiling:at least 12,000 feet AGL
Clouds: few clouds at 5000 feet AGL
QC Flag:automated observation with no human augmentation
Text:K6B9 252015Z AUTO 11009KT 10SM BKN050 23/12 A3024 RMK AO2
Temperature: 23.0°C ( 73°F)
Dewpoint: 12.0°C ( 54°F) [RH = 50%]
Pressure (altimeter):30.24 inches Hg (1024.1 mb)
Winds:from the ESE (110 degrees) at 10 MPH (9 knots; 4.6 m/s)
Visibility:10 or more sm (16+ km)
Ceiling:5000 feet AGL
Clouds: broken clouds at 5000 feet AGL
QC Flag:automated observation with no human augmentation
Text:K6B9 251955Z AUTO 12008KT 10SM OVC050 22/12 A3025 RMK AO2
Temperature: 22.0°C ( 72°F)
Dewpoint: 12.0°C ( 54°F) [RH = 53%]
Pressure (altimeter):30.25 inches Hg (1024.5 mb)
Winds:from the ESE (120 degrees) at 9 MPH (8 knots; 4.1 m/s)
Visibility:10 or more sm (16+ km)
Ceiling:5000 feet AGL
Clouds: overcast cloud deck at 5000 feet AGL
QC Flag:automated observation with no human augmentation
Text:K6B9 251935Z AUTO 10008KT 10SM OVC050 22/12 A3027 RMK AO2
Temperature: 22.0°C ( 72°F)
Dewpoint: 12.0°C ( 54°F) [RH = 53%]
Pressure (altimeter):30.27 inches Hg (1025.1 mb)
Winds:from the E (100 degrees) at 9 MPH (8 knots; 4.1 m/s)
Visibility:10 or more sm (16+ km)
Ceiling:5000 feet AGL
Clouds: overcast cloud deck at 5000 feet AGL
QC Flag:automated observation with no human augmentation
Text:K6B9 251915Z AUTO 10009KT 090V160 10SM OVC050 22/12 A3028 RMK AO2
Temperature: 22.0°C ( 72°F)
Dewpoint: 12.0°C ( 54°F) [RH = 53%]
Pressure (altimeter):30.28 inches Hg (1025.5 mb)
Winds:from the E (100 degrees) at 10 MPH (9 knots; 4.6 m/s)
Visibility:10 or more sm (16+ km)
Ceiling:5000 feet AGL
Clouds: overcast cloud deck at 5000 feet AGL
QC Flag:automated observation with no human augmentation
Text:K6B9 251855Z AUTO 10007KT 10SM OVC050 22/12 A3029 RMK AO2
Temperature: 22.0°C ( 72°F)
Dewpoint: 12.0°C ( 54°F) [RH = 53%]
Pressure (altimeter):30.29 inches Hg (1025.8 mb)
Winds:from the E (100 degrees) at 8 MPH (7 knots; 3.6 m/s)
Visibility:10 or more sm (16+ km)
Ceiling:5000 feet AGL
Clouds: overcast cloud deck at 5000 feet AGL
QC Flag:automated observation with no human augmentation
Text:K6B9 251835Z AUTO VRB04KT 10SM OVC049 21/12 A3029 RMK AO2
Temperature: 21.0°C ( 70°F)
Dewpoint: 12.0°C ( 54°F) [RH = 56%]
Pressure (altimeter):30.29 inches Hg (1025.8 mb)
Winds:variable direction winds at 5 MPH (4 knots; 2.1 m/s)
Visibility:10 or more sm (16+ km)
Ceiling:4900 feet AGL
Clouds: overcast cloud deck at 4900 feet AGL
QC Flag:automated observation with no human augmentation
Text:K6B9 251815Z AUTO VRB04KT 10SM OVC048 21/12 A3029 RMK AO2
Temperature: 21.0°C ( 70°F)
Dewpoint: 12.0°C ( 54°F) [RH = 56%]
Pressure (altimeter):30.29 inches Hg (1025.8 mb)
Winds:variable direction winds at 5 MPH (4 knots; 2.1 m/s)
Visibility:10 or more sm (16+ km)
Ceiling:4800 feet AGL
Clouds: overcast cloud deck at 4800 feet AGL
QC Flag:automated observation with no human augmentation
Text:K6B9 251755Z AUTO VRB03KT 10SM OVC047 21/11 A3031 RMK AO2
Temperature: 21.0°C ( 70°F)
Dewpoint: 11.0°C ( 52°F) [RH = 53%]
Pressure (altimeter):30.31 inches Hg (1026.5 mb)
Winds:variable direction winds at 3 MPH (3 knots; 1.5 m/s)
Visibility:10 or more sm (16+ km)
Ceiling:4700 feet AGL
Clouds: overcast cloud deck at 4700 feet AGL
QC Flag:automated observation with no human augmentation
Text:K6B9 251735Z AUTO VRB05KT 10SM OVC046 21/12 A3031 RMK AO2
Temperature: 21.0°C ( 70°F)
Dewpoint: 12.0°C ( 54°F) [RH = 56%]
Pressure (altimeter):30.31 inches Hg (1026.5 mb)
Winds:variable direction winds at 6 MPH (5 knots; 2.6 m/s)
Visibility:10 or more sm (16+ km)
Ceiling:4600 feet AGL
Clouds: overcast cloud deck at 4600 feet AGL
QC Flag:automated observation with no human augmentation